sensor_id;sensor_type;location;lat;lon;timestamp;temperature;humidity
44047;DHT22;29713;-33.888;151.150;2022-08-19T00:00:36;16.40;99.90
44047;DHT22;29713;-33.888;151.150;2022-08-19T00:03:05;16.30;99.90
44047;DHT22;29713;-33.888;151.150;2022-08-19T00:05:33;16.30;99.90
44047;DHT22;29713;-33.888;151.150;2022-08-19T00:08:02;16.30;99.90
44047;DHT22;29713;-33.888;151.150;2022-08-19T00:10:29;16.30;99.90
44047;DHT22;29713;-33.888;151.150;2022-08-19T00:12:56;16.30;99.90
44047;DHT22;29713;-33.888;151.150;2022-08-19T00:15:24;16.40;99.90
44047;DHT22;29713;-33.888;151.150;2022-08-19T00:17:51;16.40;99.90
44047;DHT22;29713;-33.888;151.150;2022-08-19T00:20:20;16.50;99.90
44047;DHT22;29713;-33.888;151.150;2022-08-19T00:22:48;16.50;99.90
44047;DHT22;29713;-33.888;151.150;2022-08-19T00:25:16;16.60;99.90
44047;DHT22;29713;-33.888;151.150;2022-08-19T00:27:43;16.70;99.90
44047;DHT22;29713;-33.888;151.150;2022-08-19T00:30:11;16.70;99.90
44047;DHT22;29713;-33.888;151.150;2022-08-19T00:32:39;16.80;99.90
44047;DHT22;29713;-33.888;151.150;2022-08-19T00:35:07;17.00;99.90
44047;DHT22;29713;-33.888;151.150;2022-08-19T00:37:35;17.10;99.90
44047;DHT22;29713;-33.888;151.150;2022-08-19T00:40:05;17.30;99.90
44047;DHT22;29713;-33.888;151.150;2022-08-19T00:42:32;17.40;99.90
44047;DHT22;29713;-33.888;151.150;2022-08-19T00:45:00;17.60;99.90
44047;DHT22;29713;-33.888;151.150;2022-08-19T00:47:27;17.70;99.90
44047;DHT22;29713;-33.888;151.150;2022-08-19T00:49:57;17.80;99.90
44047;DHT22;29713;-33.888;151.150;2022-08-19T00:52:32;17.80;99.90
44047;DHT22;29713;-33.888;151.150;2022-08-19T00:55:01;17.90;99.90
44047;DHT22;29713;-33.888;151.150;2022-08-19T00:57:38;17.90;99.90
44047;DHT22;29713;-33.888;151.150;2022-08-19T01:00:11;18.00;99.90
44047;DHT22;29713;-33.888;151.150;2022-08-19T01:02:40;18.10;99.90
44047;DHT22;29713;-33.888;151.150;2022-08-19T01:05:11;18.10;99.90
44047;DHT22;29713;-33.888;151.150;2022-08-19T01:07:41;18.20;99.90
44047;DHT22;29713;-33.888;151.150;2022-08-19T01:10:13;18.20;99.90
44047;DHT22;29713;-33.888;151.150;2022-08-19T01:12:41;18.20;99.90
44047;DHT22;29713;-33.888;151.150;2022-08-19T01:15:11;18.30;99.90
44047;DHT22;29713;-33.888;151.150;2022-08-19T01:17:40;18.50;99.90
44047;DHT22;29713;-33.888;151.150;2022-08-19T01:20:20;18.60;99.90
44047;DHT22;29713;-33.888;151.150;2022-08-19T01:22:54;18.70;99.90
44047;DHT22;29713;-33.888;151.150;2022-08-19T01:25:30;18.90;99.90
44047;DHT22;29713;-33.888;151.150;2022-08-19T01:27:58;19.00;99.90
44047;DHT22;29713;-33.888;151.150;2022-08-19T01:30:28;19.20;99.90
44047;DHT22;29713;-33.888;151.150;2022-08-19T01:32:57;19.50;99.90
44047;DHT22;29713;-33.888;151.150;2022-08-19T01:35:28;20.00;99.90
44047;DHT22;29713;-33.888;151.150;2022-08-19T01:38:03;20.40;99.90
44047;DHT22;29713;-33.888;151.150;2022-08-19T01:40:35;20.40;99.90
44047;DHT22;29713;-33.888;151.150;2022-08-19T01:43:05;20.30;99.90
44047;DHT22;29713;-33.888;151.150;2022-08-19T01:45:34;20.10;99.90
44047;DHT22;29713;-33.888;151.150;2022-08-19T01:48:04;20.00;99.90
44047;DHT22;29713;-33.888;151.150;2022-08-19T01:50:33;19.90;99.90
44047;DHT22;29713;-33.888;151.150;2022-08-19T01:53:02;19.70;99.90
44047;DHT22;29713;-33.888;151.150;2022-08-19T01:55:30;19.70;99.90
44047;DHT22;29713;-33.888;151.150;2022-08-19T01:58:00;19.70;99.90
44047;DHT22;29713;-33.888;151.150;2022-08-19T02:00:30;19.70;99.90
44047;DHT22;29713;-33.888;151.150;2022-08-19T02:02:58;19.60;99.90
44047;DHT22;29713;-33.888;151.150;2022-08-19T02:05:27;19.60;99.90
44047;DHT22;29713;-33.888;151.150;2022-08-19T02:07:56;19.50;99.90
44047;DHT22;29713;-33.888;151.150;2022-08-19T02:10:25;19.50;99.90
44047;DHT22;29713;-33.888;151.150;2022-08-19T02:12:57;19.40;99.90
44047;DHT22;29713;-33.888;151.150;2022-08-19T02:15:25;19.40;99.90
44047;DHT22;29713;-33.888;151.150;2022-08-19T02:17:52;19.40;99.90
44047;DHT22;29713;-33.888;151.150;2022-08-19T02:20:20;19.30;99.90
44047;DHT22;29713;-33.888;151.150;2022-08-19T02:22:48;19.30;99.90
44047;DHT22;29713;-33.888;151.150;2022-08-19T02:25:16;19.40;99.90
44047;DHT22;29713;-33.888;151.150;2022-08-19T02:27:43;19.40;99.90
44047;DHT22;29713;-33.888;151.150;2022-08-19T02:30:16;19.50;99.90
44047;DHT22;29713;-33.888;151.150;2022-08-19T02:32:45;19.60;99.90
44047;DHT22;29713;-33.888;151.150;2022-08-19T02:35:13;19.80;99.90
44047;DHT22;29713;-33.888;151.150;2022-08-19T02:37:42;20.30;99.90
44047;DHT22;29713;-33.888;151.150;2022-08-19T02:40:28;21.00;99.90
44047;DHT22;29713;-33.888;151.150;2022-08-19T02:42:56;21.90;99.90
44047;DHT22;29713;-33.888;151.150;2022-08-19T02:45:24;22.60;99.90
44047;DHT22;29713;-33.888;151.150;2022-08-19T02:47:51;23.30;99.90
44047;DHT22;29713;-33.888;151.150;2022-08-19T02:50:19;23.70;99.90
44047;DHT22;29713;-33.888;151.150;2022-08-19T02:52:46;23.70;99.90
44047;DHT22;29713;-33.888;151.150;2022-08-19T02:55:13;23.70;99.90
44047;DHT22;29713;-33.888;151.150;2022-08-19T02:57:41;23.80;99.90
44047;DHT22;29713;-33.888;151.150;2022-08-19T03:00:09;23.90;99.90
44047;DHT22;29713;-33.888;151.150;2022-08-19T03:02:40;23.50;99.90
44047;DHT22;29713;-33.888;151.150;2022-08-19T03:05:08;22.90;99.90
44047;DHT22;29713;-33.888;151.150;2022-08-19T03:07:36;22.70;99.90
44047;DHT22;29713;-33.888;151.150;2022-08-19T03:10:05;23.00;99.90
44047;DHT22;29713;-33.888;151.150;2022-08-19T03:12:36;23.10;99.90
44047;DHT22;29713;-33.888;151.150;2022-08-19T03:15:06;22.90;99.90
44047;DHT22;29713;-33.888;151.150;2022-08-19T03:17:35;22.80;99.90
44047;DHT22;29713;-33.888;151.150;2022-08-19T03:20:04;22.70;99.90
44047;DHT22;29713;-33.888;151.150;2022-08-19T03:22:31;22.50;99.90
44047;DHT22;29713;-33.888;151.150;2022-08-19T03:24:59;22.10;99.90
44047;DHT22;29713;-33.888;151.150;2022-08-19T03:27:26;21.90;99.90
44047;DHT22;29713;-33.888;151.150;2022-08-19T03:29:53;21.70;99.90
44047;DHT22;29713;-33.888;151.150;2022-08-19T03:32:21;21.60;99.90
44047;DHT22;29713;-33.888;151.150;2022-08-19T03:34:48;21.90;99.90
44047;DHT22;29713;-33.888;151.150;2022-08-19T03:37:17;22.20;99.90
44047;DHT22;29713;-33.888;151.150;2022-08-19T03:39:44;22.30;99.90
44047;DHT22;29713;-33.888;151.150;2022-08-19T03:42:12;22.30;99.90
44047;DHT22;29713;-33.888;151.150;2022-08-19T03:44:39;22.20;99.90
44047;DHT22;29713;-33.888;151.150;2022-08-19T03:47:08;21.90;99.90
44047;DHT22;29713;-33.888;151.150;2022-08-19T03:49:35;21.50;99.90
44047;DHT22;29713;-33.888;151.150;2022-08-19T03:52:03;21.10;99.90
44047;DHT22;29713;-33.888;151.150;2022-08-19T03:54:34;20.90;99.90
44047;DHT22;29713;-33.888;151.150;2022-08-19T03:57:02;20.60;99.90
44047;DHT22;29713;-33.888;151.150;2022-08-19T03:59:34;20.50;99.90
44047;DHT22;29713;-33.888;151.150;2022-08-19T04:02:05;20.40;99.90
44047;DHT22;29713;-33.888;151.150;2022-08-19T04:04:39;20.30;99.90
44047;DHT22;29713;-33.888;151.150;2022-08-19T04:07:08;20.20;99.90
44047;DHT22;29713;-33.888;151.150;2022-08-19T04:09:36;20.20;99.90
44047;DHT22;29713;-33.888;151.150;2022-08-19T04:12:04;20.10;99.90
44047;DHT22;29713;-33.888;151.150;2022-08-19T04:14:32;20.00;99.90
44047;DHT22;29713;-33.888;151.150;2022-08-19T04:17:01;19.90;99.90
44047;DHT22;29713;-33.888;151.150;2022-08-19T04:19:31;19.80;99.90
44047;DHT22;29713;-33.888;151.150;2022-08-19T04:21:59;19.70;99.90
44047;DHT22;29713;-33.888;151.150;2022-08-19T04:24:26;19.70;99.90
44047;DHT22;29713;-33.888;151.150;2022-08-19T04:26:54;19.70;99.90
44047;DHT22;29713;-33.888;151.150;2022-08-19T04:29:24;20.20;99.90
44047;DHT22;29713;-33.888;151.150;2022-08-19T04:31:55;21.00;99.90
44047;DHT22;29713;-33.888;151.150;2022-08-19T04:34:24;21.40;99.90
44047;DHT22;29713;-33.888;151.150;2022-08-19T04:36:54;21.40;99.90
44047;DHT22;29713;-33.888;151.150;2022-08-19T04:39:25;21.80;99.90
44047;DHT22;29713;-33.888;151.150;2022-08-19T04:42:10;21.90;99.90
44047;DHT22;29713;-33.888;151.150;2022-08-19T04:44:56;21.90;99.90
44047;DHT22;29713;-33.888;151.150;2022-08-19T04:47:25;21.70;99.90
44047;DHT22;29713;-33.888;151.150;2022-08-19T04:49:52;21.70;99.90
44047;DHT22;29713;-33.888;151.150;2022-08-19T04:52:19;21.70;99.90
44047;DHT22;29713;-33.888;151.150;2022-08-19T04:54:47;21.70;99.90
44047;DHT22;29713;-33.888;151.150;2022-08-19T04:57:14;21.60;99.90
44047;DHT22;29713;-33.888;151.150;2022-08-19T04:59:41;21.50;99.90
44047;DHT22;29713;-33.888;151.150;2022-08-19T05:02:09;21.10;99.90
44047;DHT22;29713;-33.888;151.150;2022-08-19T05:04:37;20.70;99.90
44047;DHT22;29713;-33.888;151.150;2022-08-19T05:07:09;20.50;99.90
44047;DHT22;29713;-33.888;151.150;2022-08-19T05:09:36;20.10;99.90
44047;DHT22;29713;-33.888;151.150;2022-08-19T05:12:04;19.60;99.90
44047;DHT22;29713;-33.888;151.150;2022-08-19T05:14:32;19.30;99.90
44047;DHT22;29713;-33.888;151.150;2022-08-19T05:17:01;19.00;99.90
44047;DHT22;29713;-33.888;151.150;2022-08-19T05:19:29;18.80;99.90
44047;DHT22;29713;-33.888;151.150;2022-08-19T05:22:14;18.70;99.90
44047;DHT22;29713;-33.888;151.150;2022-08-19T05:25:13;18.50;99.90
44047;DHT22;29713;-33.888;151.150;2022-08-19T05:27:41;18.50;99.90
44047;DHT22;29713;-33.888;151.150;2022-08-19T05:30:10;18.50;99.90
44047;DHT22;29713;-33.888;151.150;2022-08-19T05:32:39;18.60;99.90
44047;DHT22;29713;-33.888;151.150;2022-08-19T05:35:06;18.70;99.90
44047;DHT22;29713;-33.888;151.150;2022-08-19T05:37:34;18.80;99.90
44047;DHT22;29713;-33.888;151.150;2022-08-19T05:40:02;18.80;99.90
44047;DHT22;29713;-33.888;151.150;2022-08-19T05:42:29;18.90;99.90
44047;DHT22;29713;-33.888;151.150;2022-08-19T05:44:57;19.10;99.90
44047;DHT22;29713;-33.888;151.150;2022-08-19T05:47:24;19.40;99.90
44047;DHT22;29713;-33.888;151.150;2022-08-19T05:49:51;19.40;99.90
44047;DHT22;29713;-33.888;151.150;2022-08-19T05:52:19;19.30;99.90
44047;DHT22;29713;-33.888;151.150;2022-08-19T05:54:47;19.10;99.90
44047;DHT22;29713;-33.888;151.150;2022-08-19T05:57:15;18.90;99.90
44047;DHT22;29713;-33.888;151.150;2022-08-19T05:59:42;18.80;99.90
44047;DHT22;29713;-33.888;151.150;2022-08-19T06:02:12;18.80;99.90
44047;DHT22;29713;-33.888;151.150;2022-08-19T06:04:40;18.80;99.90
44047;DHT22;29713;-33.888;151.150;2022-08-19T06:07:10;18.80;99.90
44047;DHT22;29713;-33.888;151.150;2022-08-19T06:09:38;18.80;99.90
44047;DHT22;29713;-33.888;151.150;2022-08-19T06:12:05;18.80;99.90
44047;DHT22;29713;-33.888;151.150;2022-08-19T06:14:34;18.90;99.90
44047;DHT22;29713;-33.888;151.150;2022-08-19T06:17:02;18.90;99.90
44047;DHT22;29713;-33.888;151.150;2022-08-19T06:19:30;19.00;99.90
44047;DHT22;29713;-33.888;151.150;2022-08-19T06:21:59;19.10;99.90
44047;DHT22;29713;-33.888;151.150;2022-08-19T06:24:28;19.00;99.90
44047;DHT22;29713;-33.888;151.150;2022-08-19T06:26:57;19.00;99.90
44047;DHT22;29713;-33.888;151.150;2022-08-19T06:29:26;18.90;99.90
44047;DHT22;29713;-33.888;151.150;2022-08-19T06:31:56;18.70;99.90
44047;DHT22;29713;-33.888;151.150;2022-08-19T06:34:24;18.60;99.90
44047;DHT22;29713;-33.888;151.150;2022-08-19T06:36:54;18.50;99.90
44047;DHT22;29713;-33.888;151.150;2022-08-19T06:39:25;18.40;99.90
44047;DHT22;29713;-33.888;151.150;2022-08-19T06:41:55;18.30;99.90
44047;DHT22;29713;-33.888;151.150;2022-08-19T06:44:25;18.30;99.90
44047;DHT22;29713;-33.888;151.150;2022-08-19T06:46:54;18.30;99.90
44047;DHT22;29713;-33.888;151.150;2022-08-19T06:49:23;18.30;99.90
44047;DHT22;29713;-33.888;151.150;2022-08-19T06:51:51;18.30;99.90
44047;DHT22;29713;-33.888;151.150;2022-08-19T06:54:20;18.20;99.90
44047;DHT22;29713;-33.888;151.150;2022-08-19T06:56:47;18.20;99.90
44047;DHT22;29713;-33.888;151.150;2022-08-19T06:59:20;18.10;99.90
44047;DHT22;29713;-33.888;151.150;2022-08-19T07:01:50;18.00;99.90
44047;DHT22;29713;-33.888;151.150;2022-08-19T07:04:20;17.90;99.90
44047;DHT22;29713;-33.888;151.150;2022-08-19T07:06:49;17.70;99.90
44047;DHT22;29713;-33.888;151.150;2022-08-19T07:09:18;17.50;99.90
44047;DHT22;29713;-33.888;151.150;2022-08-19T07:11:50;17.30;99.90
44047;DHT22;29713;-33.888;151.150;2022-08-19T07:14:22;17.20;99.90
44047;DHT22;29713;-33.888;151.150;2022-08-19T07:16:52;17.10;99.90
44047;DHT22;29713;-33.888;151.150;2022-08-19T07:19:22;17.00;99.90
44047;DHT22;29713;-33.888;151.150;2022-08-19T07:21:51;16.90;99.90
44047;DHT22;29713;-33.888;151.150;2022-08-19T07:24:20;16.90;99.90
44047;DHT22;29713;-33.888;151.150;2022-08-19T07:26:51;16.80;99.90
44047;DHT22;29713;-33.888;151.150;2022-08-19T07:29:19;16.70;99.90
44047;DHT22;29713;-33.888;151.150;2022-08-19T07:31:53;16.60;99.90
44047;DHT22;29713;-33.888;151.150;2022-08-19T07:34:24;16.50;99.90
44047;DHT22;29713;-33.888;151.150;2022-08-19T07:36:52;16.50;99.90
44047;DHT22;29713;-33.888;151.150;2022-08-19T07:39:24;16.40;99.90
44047;DHT22;29713;-33.888;151.150;2022-08-19T07:41:52;16.40;99.90
44047;DHT22;29713;-33.888;151.150;2022-08-19T07:44:20;16.40;99.90
44047;DHT22;29713;-33.888;151.150;2022-08-19T07:46:51;16.30;99.90
44047;DHT22;29713;-33.888;151.150;2022-08-19T07:49:20;16.30;99.90
44047;DHT22;29713;-33.888;151.150;2022-08-19T07:51:51;16.20;99.90
44047;DHT22;29713;-33.888;151.150;2022-08-19T07:54:20;16.10;99.90
44047;DHT22;29713;-33.888;151.150;2022-08-19T07:56:48;16.10;99.90
44047;DHT22;29713;-33.888;151.150;2022-08-19T07:59:18;16.00;99.90
44047;DHT22;29713;-33.888;151.150;2022-08-19T08:01:46;15.90;99.90
44047;DHT22;29713;-33.888;151.150;2022-08-19T08:04:13;15.90;99.90
44047;DHT22;29713;-33.888;151.150;2022-08-19T08:06:58;15.80;99.90
44047;DHT22;29713;-33.888;151.150;2022-08-19T08:09:44;15.80;99.90
44047;DHT22;29713;-33.888;151.150;2022-08-19T08:12:27;15.80;99.90
44047;DHT22;29713;-33.888;151.150;2022-08-19T08:14:58;15.70;99.90
44047;DHT22;29713;-33.888;151.150;2022-08-19T08:17:29;15.70;99.90
44047;DHT22;29713;-33.888;151.150;2022-08-19T08:19:58;15.60;99.90
44047;DHT22;29713;-33.888;151.150;2022-08-19T08:22:26;15.60;99.90
44047;DHT22;29713;-33.888;151.150;2022-08-19T08:25:16;15.60;99.90
44047;DHT22;29713;-33.888;151.150;2022-08-19T08:27:46;15.60;99.90
44047;DHT22;29713;-33.888;151.150;2022-08-19T08:30:17;15.50;99.90
44047;DHT22;29713;-33.888;151.150;2022-08-19T08:32:44;15.50;99.90
44047;DHT22;29713;-33.888;151.150;2022-08-19T08:35:14;15.40;99.90
44047;DHT22;29713;-33.888;151.150;2022-08-19T08:37:43;15.40;99.90
44047;DHT22;29713;-33.888;151.150;2022-08-19T08:40:28;15.30;99.90
44047;DHT22;29713;-33.888;151.150;2022-08-19T08:43:06;15.20;99.90
44047;DHT22;29713;-33.888;151.150;2022-08-19T08:45:38;15.30;99.90
44047;DHT22;29713;-33.888;151.150;2022-08-19T08:48:27;15.20;99.90
44047;DHT22;29713;-33.888;151.150;2022-08-19T08:50:59;15.20;99.90
44047;DHT22;29713;-33.888;151.150;2022-08-19T08:53:31;15.20;99.90
44047;DHT22;29713;-33.888;151.150;2022-08-19T08:56:03;15.10;99.90
44047;DHT22;29713;-33.888;151.150;2022-08-19T09:01:27;15.00;99.90
44047;DHT22;29713;-33.888;151.150;2022-08-19T09:03:54;14.90;99.90
44047;DHT22;29713;-33.888;151.150;2022-08-19T09:06:44;14.90;99.90
44047;DHT22;29713;-33.888;151.150;2022-08-19T09:09:38;14.90;99.90
44047;DHT22;29713;-33.888;151.150;2022-08-19T09:12:45;14.90;99.90
44047;DHT22;29713;-33.888;151.150;2022-08-19T09:15:12;14.90;99.90
44047;DHT22;29713;-33.888;151.150;2022-08-19T09:17:40;14.90;99.90
44047;DHT22;29713;-33.888;151.150;2022-08-19T09:20:29;14.80;99.90
44047;DHT22;29713;-33.888;151.150;2022-08-19T09:22:58;14.80;99.90
44047;DHT22;29713;-33.888;151.150;2022-08-19T09:25:26;14.80;99.90
44047;DHT22;29713;-33.888;151.150;2022-08-19T09:27:54;14.80;99.90
44047;DHT22;29713;-33.888;151.150;2022-08-19T09:30:26;14.70;99.90
44047;DHT22;29713;-33.888;151.150;2022-08-19T09:32:55;14.70;99.90
44047;DHT22;29713;-33.888;151.150;2022-08-19T09:35:25;14.60;99.90
44047;DHT22;29713;-33.888;151.150;2022-08-19T09:37:53;14.50;99.90
44047;DHT22;29713;-33.888;151.150;2022-08-19T09:40:20;14.50;99.90
44047;DHT22;29713;-33.888;151.150;2022-08-19T09:42:48;14.50;99.90
44047;DHT22;29713;-33.888;151.150;2022-08-19T09:45:17;14.50;99.90
44047;DHT22;29713;-33.888;151.150;2022-08-19T09:47:44;14.50;99.90
44047;DHT22;29713;-33.888;151.150;2022-08-19T09:50:13;14.50;99.90
44047;DHT22;29713;-33.888;151.150;2022-08-19T09:52:40;14.40;99.90
44047;DHT22;29713;-33.888;151.150;2022-08-19T09:55:10;14.40;99.90
44047;DHT22;29713;-33.888;151.150;2022-08-19T09:57:38;14.30;99.90
44047;DHT22;29713;-33.888;151.150;2022-08-19T10:00:07;14.30;99.90
44047;DHT22;29713;-33.888;151.150;2022-08-19T10:02:35;14.20;99.90
44047;DHT22;29713;-33.888;151.150;2022-08-19T10:05:03;14.20;99.90
44047;DHT22;29713;-33.888;151.150;2022-08-19T10:07:48;14.10;99.90
44047;DHT22;29713;-33.888;151.150;2022-08-19T10:10:16;14.10;99.90
44047;DHT22;29713;-33.888;151.150;2022-08-19T10:12:44;14.00;99.90
44047;DHT22;29713;-33.888;151.150;2022-08-19T10:15:14;14.10;99.90
44047;DHT22;29713;-33.888;151.150;2022-08-19T10:17:41;14.00;99.90
44047;DHT22;29713;-33.888;151.150;2022-08-19T10:20:09;14.00;99.90
44047;DHT22;29713;-33.888;151.150;2022-08-19T10:22:37;13.90;99.90
44047;DHT22;29713;-33.888;151.150;2022-08-19T10:25:05;13.90;99.90
44047;DHT22;29713;-33.888;151.150;2022-08-19T10:27:33;13.80;99.90
44047;DHT22;29713;-33.888;151.150;2022-08-19T10:30:03;13.80;99.90
44047;DHT22;29713;-33.888;151.150;2022-08-19T10:32:31;13.70;99.90
44047;DHT22;29713;-33.888;151.150;2022-08-19T10:34:59;13.70;99.90
44047;DHT22;29713;-33.888;151.150;2022-08-19T10:37:26;13.70;99.90
44047;DHT22;29713;-33.888;151.150;2022-08-19T10:39:54;13.70;99.90
44047;DHT22;29713;-33.888;151.150;2022-08-19T10:42:22;13.60;99.90
44047;DHT22;29713;-33.888;151.150;2022-08-19T10:44:49;13.60;99.90
44047;DHT22;29713;-33.888;151.150;2022-08-19T10:47:16;13.60;99.90
44047;DHT22;29713;-33.888;151.150;2022-08-19T10:49:44;13.60;99.90
44047;DHT22;29713;-33.888;151.150;2022-08-19T10:52:29;13.50;99.90
44047;DHT22;29713;-33.888;151.150;2022-08-19T10:55:07;13.50;99.90
44047;DHT22;29713;-33.888;151.150;2022-08-19T10:57:52;13.50;99.90
44047;DHT22;29713;-33.888;151.150;2022-08-19T11:00:21;13.50;99.90
44047;DHT22;29713;-33.888;151.150;2022-08-19T11:02:50;13.50;99.90
44047;DHT22;29713;-33.888;151.150;2022-08-19T11:05:17;13.50;99.90
44047;DHT22;29713;-33.888;151.150;2022-08-19T11:07:45;13.50;99.90
44047;DHT22;29713;-33.888;151.150;2022-08-19T11:10:14;13.50;99.90
44047;DHT22;29713;-33.888;151.150;2022-08-19T11:12:45;13.40;99.90
44047;DHT22;29713;-33.888;151.150;2022-08-19T11:15:13;13.40;99.90
44047;DHT22;29713;-33.888;151.150;2022-08-19T11:17:41;13.40;99.90
44047;DHT22;29713;-33.888;151.150;2022-08-19T11:20:12;13.40;99.90
44047;DHT22;29713;-33.888;151.150;2022-08-19T11:22:41;13.40;99.90
44047;DHT22;29713;-33.888;151.150;2022-08-19T11:25:10;13.30;99.90
44047;DHT22;29713;-33.888;151.150;2022-08-19T11:27:42;13.30;99.90
44047;DHT22;29713;-33.888;151.150;2022-08-19T11:30:12;13.20;99.90
44047;DHT22;29713;-33.888;151.150;2022-08-19T11:32:43;13.20;99.90
44047;DHT22;29713;-33.888;151.150;2022-08-19T11:35:10;13.20;99.90
44047;DHT22;29713;-33.888;151.150;2022-08-19T11:37:38;13.20;99.90
44047;DHT22;29713;-33.888;151.150;2022-08-19T11:40:06;13.20;99.90
44047;DHT22;29713;-33.888;151.150;2022-08-19T11:42:34;13.20;99.90
44047;DHT22;29713;-33.888;151.150;2022-08-19T11:45:19;13.20;99.90
44047;DHT22;29713;-33.888;151.150;2022-08-19T11:47:46;13.10;99.90
44047;DHT22;29713;-33.888;151.150;2022-08-19T11:50:15;13.10;99.90
44047;DHT22;29713;-33.888;151.150;2022-08-19T11:52:43;13.10;99.90
44047;DHT22;29713;-33.888;151.150;2022-08-19T11:55:12;13.10;99.90
44047;DHT22;29713;-33.888;151.150;2022-08-19T11:57:41;13.10;99.90
44047;DHT22;29713;-33.888;151.150;2022-08-19T12:00:10;13.10;99.90
44047;DHT22;29713;-33.888;151.150;2022-08-19T12:02:40;13.10;99.90
44047;DHT22;29713;-33.888;151.150;2022-08-19T12:05:07;13.10;99.90
44047;DHT22;29713;-33.888;151.150;2022-08-19T12:07:35;13.00;99.90
44047;DHT22;29713;-33.888;151.150;2022-08-19T12:10:02;13.00;99.90
44047;DHT22;29713;-33.888;151.150;2022-08-19T12:12:30;12.90;99.90
44047;DHT22;29713;-33.888;151.150;2022-08-19T12:14:57;12.90;99.90
44047;DHT22;29713;-33.888;151.150;2022-08-19T12:17:26;12.80;99.90
44047;DHT22;29713;-33.888;151.150;2022-08-19T12:19:54;12.80;99.90
44047;DHT22;29713;-33.888;151.150;2022-08-19T12:22:21;12.70;99.90
44047;DHT22;29713;-33.888;151.150;2022-08-19T12:24:49;12.70;99.90
44047;DHT22;29713;-33.888;151.150;2022-08-19T12:27:19;12.60;99.90
44047;DHT22;29713;-33.888;151.150;2022-08-19T12:29:46;12.60;99.90
44047;DHT22;29713;-33.888;151.150;2022-08-19T12:32:14;12.60;99.90
44047;DHT22;29713;-33.888;151.150;2022-08-19T12:34:41;12.50;99.90
44047;DHT22;29713;-33.888;151.150;2022-08-19T12:37:08;12.50;99.90
44047;DHT22;29713;-33.888;151.150;2022-08-19T12:39:40;12.40;99.90
44047;DHT22;29713;-33.888;151.150;2022-08-19T12:42:09;12.40;99.90
44047;DHT22;29713;-33.888;151.150;2022-08-19T12:44:38;12.50;99.90
44047;DHT22;29713;-33.888;151.150;2022-08-19T12:47:07;12.40;99.90
44047;DHT22;29713;-33.888;151.150;2022-08-19T12:49:35;12.40;99.90
44047;DHT22;29713;-33.888;151.150;2022-08-19T12:52:04;12.30;99.90
44047;DHT22;29713;-33.888;151.150;2022-08-19T12:54:32;12.30;99.90
44047;DHT22;29713;-33.888;151.150;2022-08-19T12:57:00;12.30;99.90
44047;DHT22;29713;-33.888;151.150;2022-08-19T12:59:27;12.20;99.90
44047;DHT22;29713;-33.888;151.150;2022-08-19T13:01:55;12.20;99.90
44047;DHT22;29713;-33.888;151.150;2022-08-19T13:04:22;12.20;99.90
44047;DHT22;29713;-33.888;151.150;2022-08-19T13:06:49;12.20;99.90
44047;DHT22;29713;-33.888;151.150;2022-08-19T13:09:17;12.20;99.90
44047;DHT22;29713;-33.888;151.150;2022-08-19T13:11:44;12.20;99.90
44047;DHT22;29713;-33.888;151.150;2022-08-19T13:14:11;12.20;99.90
44047;DHT22;29713;-33.888;151.150;2022-08-19T13:16:39;12.20;99.90
44047;DHT22;29713;-33.888;151.150;2022-08-19T13:19:07;12.20;99.90
44047;DHT22;29713;-33.888;151.150;2022-08-19T13:21:35;12.20;99.90
44047;DHT22;29713;-33.888;151.150;2022-08-19T13:24:02;12.20;99.90
44047;DHT22;29713;-33.888;151.150;2022-08-19T13:26:30;12.30;99.90
44047;DHT22;29713;-33.888;151.150;2022-08-19T13:28:57;12.20;99.90
44047;DHT22;29713;-33.888;151.150;2022-08-19T13:31:42;12.30;99.90
44047;DHT22;29713;-33.888;151.150;2022-08-19T13:34:33;12.30;99.90
44047;DHT22;29713;-33.888;151.150;2022-08-19T13:37:02;12.30;99.90
44047;DHT22;29713;-33.888;151.150;2022-08-19T13:39:31;12.30;99.90
44047;DHT22;29713;-33.888;151.150;2022-08-19T13:41:59;12.30;99.90
44047;DHT22;29713;-33.888;151.150;2022-08-19T13:44:28;12.30;99.90
44047;DHT22;29713;-33.888;151.150;2022-08-19T13:47:01;12.30;99.90
44047;DHT22;29713;-33.888;151.150;2022-08-19T13:49:32;12.30;99.90
44047;DHT22;29713;-33.888;151.150;2022-08-19T13:52:00;12.30;99.90
44047;DHT22;29713;-33.888;151.150;2022-08-19T13:54:27;12.30;99.90
44047;DHT22;29713;-33.888;151.150;2022-08-19T13:56:54;12.30;99.90
44047;DHT22;29713;-33.888;151.150;2022-08-19T13:59:22;12.30;99.90
44047;DHT22;29713;-33.888;151.150;2022-08-19T14:01:49;12.30;99.90
44047;DHT22;29713;-33.888;151.150;2022-08-19T14:04:16;12.30;99.90
44047;DHT22;29713;-33.888;151.150;2022-08-19T14:06:44;12.30;99.90
44047;DHT22;29713;-33.888;151.150;2022-08-19T14:09:11;12.20;99.90
44047;DHT22;29713;-33.888;151.150;2022-08-19T14:11:38;12.20;99.90
44047;DHT22;29713;-33.888;151.150;2022-08-19T14:14:06;12.20;99.90
44047;DHT22;29713;-33.888;151.150;2022-08-19T14:16:33;12.20;99.90
44047;DHT22;29713;-33.888;151.150;2022-08-19T14:19:00;12.20;99.90
44047;DHT22;29713;-33.888;151.150;2022-08-19T14:21:28;12.20;99.90
44047;DHT22;29713;-33.888;151.150;2022-08-19T14:23:55;12.10;99.90
44047;DHT22;29713;-33.888;151.150;2022-08-19T14:26:23;12.10;99.90
44047;DHT22;29713;-33.888;151.150;2022-08-19T14:28:50;12.10;99.90
44047;DHT22;29713;-33.888;151.150;2022-08-19T14:31:19;12.10;99.90
44047;DHT22;29713;-33.888;151.150;2022-08-19T14:33:48;12.10;99.90
44047;DHT22;29713;-33.888;151.150;2022-08-19T14:36:15;12.10;99.90
44047;DHT22;29713;-33.888;151.150;2022-08-19T14:38:43;12.10;99.90
44047;DHT22;29713;-33.888;151.150;2022-08-19T14:41:19;12.10;99.90
44047;DHT22;29713;-33.888;151.150;2022-08-19T14:43:49;12.10;99.90
44047;DHT22;29713;-33.888;151.150;2022-08-19T14:46:19;12.10;99.90
44047;DHT22;29713;-33.888;151.150;2022-08-19T14:48:48;12.10;99.90
44047;DHT22;29713;-33.888;151.150;2022-08-19T14:51:17;12.10;99.90
44047;DHT22;29713;-33.888;151.150;2022-08-19T14:53:45;12.10;99.90
44047;DHT22;29713;-33.888;151.150;2022-08-19T14:56:19;12.00;99.90
44047;DHT22;29713;-33.888;151.150;2022-08-19T14:58:47;12.00;99.90
44047;DHT22;29713;-33.888;151.150;2022-08-19T15:01:19;12.00;99.90
44047;DHT22;29713;-33.888;151.150;2022-08-19T15:03:47;12.00;99.90
44047;DHT22;29713;-33.888;151.150;2022-08-19T15:06:15;11.90;99.90